• Join FlightAware (Why Join?)
  • Login
  • US Flag 
07:19AM EDT


 

Airport Tracker/Info


-or-


 

Live Flight TrackerFlight Track Log ✈ UPS1122 ✈ 27-Dec-2013 ✈ KBDL - KALB

Flight Track Log - Related Links

Times and Time Zones

All times are in EST time to prevent confusion due to time zone crossing. See the UPS1122 flight status page for this flight to view local times or setup timezone preferences in your user account.

Time Position Orientation Groundspeed Altitude Reporting Facility
EST Latitude Longitude Course Direction KTS MPH feet Rate Location/Type
06:33AM 42.0864 -72.8814 315° West 255 293 9,600  Level FlightAware ADS-B (KSNC)
06:33AM 42.0998 -72.8994 315° West 256 295 9,700 120 Climbing FlightAware ADS-B (KSNC)
06:33AM 42.1177 -72.9235 315° West 252 290 9,700  Level FlightAware ADS-B (KSNC)
06:34AM 42.1443 -72.9597 315° West 251 289 9,700  Level FlightAware ADS-B (KSNC)
06:35AM 42.1797 -73.0090 314° West 249 287 9,700 120 Level FlightAware ADS-B (KSNC)
06:35AM 42.2056 -73.0492 314° West 248 285 9,900 180 Climbing Boston Center
06:36AM 42.2364 -73.0886 317° Northwest 248 285 10,000  Climbing Boston Center
06:36AM 42.2514 -73.1158 307° West 243 280 9,900  Descending Boston Center
06:37AM 42.2847 -73.1525 321° Northwest 245 282 10,000  Climbing Boston Center
06:37AM 42.3019 -73.1814 309° West 245 282 9,900  Descending Boston Center
06:38AM 42.3317 -73.2186 317° Northwest 245 282 10,000 60 Climbing Boston Center
06:38AM 42.3514 -73.2522 308° West 245 282 10,000 -240 Level Boston Center
06:39AM 42.3786 -73.2883 316° Northwest 249 287 9,800 -900 Descending Boston Center
06:39AM 42.3997 -73.3172 315° West 244 281 9,100 -1,500 Descending Boston Center
06:40AM 42.4308 -73.3533 319° Northwest 238 274 8,300 -1,380 Descending Boston Center
06:40AM 42.4464 -73.3789 310° West 239 275 7,800 -1,320 Descending Boston Center
06:41AM 42.4756 -73.4164 317° Northwest 231 266 7,000 -1,260 Descending Boston Center
06:41AM 42.4911 -73.4400 312° West 230 265 6,500 -1,140 Descending Boston Center
06:42AM 42.5219 -73.4775 318° Northwest 232 267 5,900 -1,140 Descending Boston Center
06:42AM 42.5433 -73.4950 329° Northwest 242 278 5,400 -1,380 Descending Boston Center
06:43AM 42.5806 -73.5244 330° Northwest 244 281 4,600 -1,320 Descending Boston Center
06:43AM 42.6017 -73.5406 331° Northwest 243 280 4,100 -1,020 Descending Boston Center
06:44AM 42.6383 -73.5686 331° Northwest 240 276 3,600 -840 Descending Boston Center
06:44AM 42.6581 -73.5856 328° Northwest 237 273 3,300 -600 Descending Boston Center
06:45AM 42.6958 -73.6133 332° Northwest 223 257 3,000 -300 Descending Boston Center
06:45AM 42.7167 -73.6283 332° Northwest 195 224 3,000  Level Boston Center
06:46AM 42.7411 -73.6486 329° Northwest 193 222 3,000  Level Boston Center
06:46AM 42.7586 -73.6569 341° North 178 205 3,000  Level Boston Center
06:47AM 42.7861 -73.6789 330° Northwest 184 212 3,000  Level Boston Center
06:47AM 42.8022 -73.6892 335° Northwest 173 199 3,000 -300 Level Boston Center
06:48AM 42.8250 -73.7053 333° Northwest 158 182 2,700 -720 Descending Boston Center
06:48AM 42.8356 -73.7178 319° Northwest 142 163 2,300 -720 Descending Boston Center
06:49AM 42.8339 -73.7492 266° West 136 157 2,000 -600 Descending Boston Center
06:49AM 42.8294 -73.7742 256° West 126 145 1,700 -540 Descending Boston Center
06:50AM 42.8186 -73.7942 234° Southwest 124 143 1,500 -420 Descending Boston Center
06:50AM 42.8069 -73.8044 213° Southwest 116 133 1,300 -540 Descending Boston Center
06:51AM 42.7883 -73.8072 186° South 121 139 1,000 -780 Descending Boston Center
06:51AM 42.7767 -73.8058 175° South 123 142 600 -840 Descending Boston Center
06:52AM 42.7542 -73.8058 180° South 123 142 200 -720 Descending Boston Center